Maipu, Argentina
Current Conditions -  °F | °C
As of 9:00 AM on Sunday 25 Jan 2015 (Local Time) from SAZM Reporting Station
Scattered Clouds Scattered Clouds  
Wind Chill: 77°   Ceiling: Unl
Heat Index: 79°   Visibility: 6mi
Dew Point: 68°   Wind: 9mph
Humidity: 74%   Direction: 250°WSW
Pressure: 29.8"   Gusts: NA
Location:  36.83°S, 57.85°W
Report Text: SAZM 251200Z 25008KT 9999 FEW030TCU SCT032 25/20 Q1009
Loading
Personal Weather Stations






























Interactive Weather Map New forecast layout! Learn more

10-Day Weather Forecast

Advertisements
Track Severe Weather on mobile